sensor_id;sensor_type;location;lat;lon;timestamp;P1;durP1;ratioP1;P2;durP2;ratioP2
71202;SDS011;58929;47.490;19.090;2023-04-06T00:02:03;12.15;;;6.95;;
71202;SDS011;58929;47.490;19.090;2023-04-06T00:04:31;12.90;;;7.22;;
71202;SDS011;58929;47.490;19.090;2023-04-06T00:06:59;14.88;;;6.72;;
71202;SDS011;58929;47.490;19.090;2023-04-06T00:09:27;19.58;;;7.38;;
71202;SDS011;58929;47.490;19.090;2023-04-06T00:11:56;13.05;;;6.22;;
71202;SDS011;58929;47.490;19.090;2023-04-06T00:14:24;14.95;;;6.68;;
71202;SDS011;58929;47.490;19.090;2023-04-06T00:16:52;12.90;;;6.63;;
71202;SDS011;58929;47.490;19.090;2023-04-06T00:19:22;12.27;;;7.15;;
71202;SDS011;58929;47.490;19.090;2023-04-06T00:21:50;13.68;;;7.22;;
71202;SDS011;58929;47.490;19.090;2023-04-06T00:24:18;13.65;;;7.10;;
71202;SDS011;58929;47.490;19.090;2023-04-06T00:26:46;11.20;;;6.95;;
71202;SDS011;58929;47.490;19.090;2023-04-06T00:29:14;13.73;;;6.05;;
71202;SDS011;58929;47.490;19.090;2023-04-06T00:31:42;13.57;;;7.13;;
71202;SDS011;58929;47.490;19.090;2023-04-06T00:34:11;12.50;;;6.93;;
71202;SDS011;58929;47.490;19.090;2023-04-06T00:36:42;13.20;;;7.05;;
71202;SDS011;58929;47.490;19.090;2023-04-06T00:39:12;10.57;;;6.60;;
71202;SDS011;58929;47.490;19.090;2023-04-06T00:41:41;15.85;;;7.88;;
71202;SDS011;58929;47.490;19.090;2023-04-06T00:44:10;17.77;;;7.82;;
71202;SDS011;58929;47.490;19.090;2023-04-06T00:46:38;13.32;;;7.32;;
71202;SDS011;58929;47.490;19.090;2023-04-06T00:49:06;13.48;;;7.25;;
71202;SDS011;58929;47.490;19.090;2023-04-06T00:51:35;18.85;;;7.30;;
71202;SDS011;58929;47.490;19.090;2023-04-06T00:54:04;19.10;;;7.40;;
71202;SDS011;58929;47.490;19.090;2023-04-06T00:56:34;15.15;;;6.78;;
71202;SDS011;58929;47.490;19.090;2023-04-06T00:59:03;14.82;;;7.43;;
71202;SDS011;58929;47.490;19.090;2023-04-06T01:01:31;14.32;;;7.53;;
71202;SDS011;58929;47.490;19.090;2023-04-06T01:04:08;16.40;;;6.95;;
71202;SDS011;58929;47.490;19.090;2023-04-06T01:06:43;13.23;;;6.95;;
71202;SDS011;58929;47.490;19.090;2023-04-06T01:09:13;14.63;;;7.13;;
71202;SDS011;58929;47.490;19.090;2023-04-06T01:11:41;15.55;;;6.95;;
71202;SDS011;58929;47.490;19.090;2023-04-06T01:14:14;13.68;;;6.50;;
71202;SDS011;58929;47.490;19.090;2023-04-06T01:16:51;14.43;;;6.95;;
71202;SDS011;58929;47.490;19.090;2023-04-06T01:19:24;13.07;;;7.40;;
71202;SDS011;58929;47.490;19.090;2023-04-06T01:21:53;16.33;;;7.10;;
71202;SDS011;58929;47.490;19.090;2023-04-06T01:24:41;13.90;;;7.00;;
71202;SDS011;58929;47.490;19.090;2023-04-06T01:27:35;27.55;;;10.00;;
71202;SDS011;58929;47.490;19.090;2023-04-06T01:30:12;26.73;;;12.50;;
71202;SDS011;58929;47.490;19.090;2023-04-06T01:35:38;16.10;;;7.97;;
71202;SDS011;58929;47.490;19.090;2023-04-06T01:38:16;15.37;;;8.23;;
71202;SDS011;58929;47.490;19.090;2023-04-06T01:40:47;20.23;;;8.48;;
71202;SDS011;58929;47.490;19.090;2023-04-06T01:43:18;13.40;;;7.70;;
71202;SDS011;58929;47.490;19.090;2023-04-06T01:48:38;15.85;;;9.18;;
71202;SDS011;58929;47.490;19.090;2023-04-06T01:51:15;20.08;;;9.10;;
71202;SDS011;58929;47.490;19.090;2023-04-06T01:53:50;16.80;;;9.40;;
71202;SDS011;58929;47.490;19.090;2023-04-06T01:56:23;26.00;;;9.55;;
71202;SDS011;58929;47.490;19.090;2023-04-06T01:59:02;16.55;;;9.45;;
71202;SDS011;58929;47.490;19.090;2023-04-06T02:01:36;21.48;;;10.63;;
71202;SDS011;58929;47.490;19.090;2023-04-06T02:04:04;19.80;;;10.80;;
71202;SDS011;58929;47.490;19.090;2023-04-06T02:06:32;15.07;;;9.52;;
71202;SDS011;58929;47.490;19.090;2023-04-06T02:09:02;18.15;;;9.48;;
71202;SDS011;58929;47.490;19.090;2023-04-06T02:11:31;16.25;;;9.70;;
71202;SDS011;58929;47.490;19.090;2023-04-06T02:13:59;20.25;;;9.55;;
71202;SDS011;58929;47.490;19.090;2023-04-06T02:16:31;17.33;;;9.35;;
71202;SDS011;58929;47.490;19.090;2023-04-06T02:18:59;24.70;;;9.82;;
71202;SDS011;58929;47.490;19.090;2023-04-06T02:21:27;19.85;;;9.73;;
71202;SDS011;58929;47.490;19.090;2023-04-06T02:23:56;20.08;;;10.32;;
71202;SDS011;58929;47.490;19.090;2023-04-06T02:26:24;18.42;;;10.10;;
71202;SDS011;58929;47.490;19.090;2023-04-06T02:28:54;20.15;;;10.45;;
71202;SDS011;58929;47.490;19.090;2023-04-06T02:31:22;21.15;;;10.48;;
71202;SDS011;58929;47.490;19.090;2023-04-06T02:33:50;24.92;;;9.70;;
71202;SDS011;58929;47.490;19.090;2023-04-06T02:36:19;21.55;;;9.45;;
71202;SDS011;58929;47.490;19.090;2023-04-06T02:38:47;19.60;;;9.63;;
71202;SDS011;58929;47.490;19.090;2023-04-06T02:41:16;21.25;;;10.18;;
71202;SDS011;58929;47.490;19.090;2023-04-06T02:43:44;16.40;;;10.02;;
71202;SDS011;58929;47.490;19.090;2023-04-06T02:46:33;20.50;;;10.15;;
71202;SDS011;58929;47.490;19.090;2023-04-06T02:49:02;18.80;;;9.38;;
71202;SDS011;58929;47.490;19.090;2023-04-06T02:51:32;20.65;;;10.25;;
71202;SDS011;58929;47.490;19.090;2023-04-06T02:54:21;25.70;;;10.43;;
71202;SDS011;58929;47.490;19.090;2023-04-06T02:56:49;24.65;;;11.05;;
71202;SDS011;58929;47.490;19.090;2023-04-06T02:59:18;29.50;;;11.35;;
71202;SDS011;58929;47.490;19.090;2023-04-06T03:01:58;25.15;;;10.73;;
71202;SDS011;58929;47.490;19.090;2023-04-06T03:04:26;26.90;;;10.90;;
71202;SDS011;58929;47.490;19.090;2023-04-06T03:06:57;26.65;;;13.02;;
71202;SDS011;58929;47.490;19.090;2023-04-06T03:09:37;21.83;;;10.85;;
71202;SDS011;58929;47.490;19.090;2023-04-06T03:12:05;22.17;;;11.38;;
71202;SDS011;58929;47.490;19.090;2023-04-06T03:14:55;21.52;;;11.73;;
71202;SDS011;58929;47.490;19.090;2023-04-06T03:17:25;22.13;;;12.85;;
71202;SDS011;58929;47.490;19.090;2023-04-06T03:19:58;26.05;;;12.50;;
71202;SDS011;58929;47.490;19.090;2023-04-06T03:22:28;25.25;;;12.52;;
71202;SDS011;58929;47.490;19.090;2023-04-06T03:24:56;26.40;;;11.40;;
71202;SDS011;58929;47.490;19.090;2023-04-06T03:27:27;31.70;;;13.02;;
71202;SDS011;58929;47.490;19.090;2023-04-06T03:29:55;23.83;;;12.18;;
71202;SDS011;58929;47.490;19.090;2023-04-06T03:32:33;32.65;;;12.30;;
71202;SDS011;58929;47.490;19.090;2023-04-06T03:35:01;20.95;;;11.55;;
71202;SDS011;58929;47.490;19.090;2023-04-06T03:37:30;22.92;;;11.77;;
71202;SDS011;58929;47.490;19.090;2023-04-06T03:40:01;25.13;;;11.95;;
71202;SDS011;58929;47.490;19.090;2023-04-06T03:42:29;27.20;;;12.30;;
71202;SDS011;58929;47.490;19.090;2023-04-06T03:45:08;32.22;;;13.40;;
71202;SDS011;58929;47.490;19.090;2023-04-06T03:47:44;22.17;;;12.15;;
71202;SDS011;58929;47.490;19.090;2023-04-06T03:50:13;31.40;;;13.35;;
71202;SDS011;58929;47.490;19.090;2023-04-06T03:52:41;27.13;;;11.65;;
71202;SDS011;58929;47.490;19.090;2023-04-06T03:55:11;23.38;;;12.07;;
71202;SDS011;58929;47.490;19.090;2023-04-06T03:57:39;22.50;;;11.95;;
71202;SDS011;58929;47.490;19.090;2023-04-06T04:00:08;29.38;;;13.23;;
71202;SDS011;58929;47.490;19.090;2023-04-06T04:02:39;30.45;;;13.45;;
71202;SDS011;58929;47.490;19.090;2023-04-06T04:05:09;23.20;;;13.30;;
71202;SDS011;58929;47.490;19.090;2023-04-06T04:07:37;21.48;;;11.88;;
71202;SDS011;58929;47.490;19.090;2023-04-06T04:10:06;22.33;;;13.00;;
71202;SDS011;58929;47.490;19.090;2023-04-06T04:12:35;25.88;;;12.68;;
71202;SDS011;58929;47.490;19.090;2023-04-06T04:15:04;29.42;;;12.80;;
71202;SDS011;58929;47.490;19.090;2023-04-06T04:17:32;30.50;;;13.10;;
71202;SDS011;58929;47.490;19.090;2023-04-06T04:20:00;28.38;;;12.90;;
71202;SDS011;58929;47.490;19.090;2023-04-06T04:22:32;27.98;;;13.82;;
71202;SDS011;58929;47.490;19.090;2023-04-06T04:25:00;25.65;;;12.45;;
71202;SDS011;58929;47.490;19.090;2023-04-06T04:27:30;27.23;;;12.40;;
71202;SDS011;58929;47.490;19.090;2023-04-06T04:29:58;24.58;;;12.10;;
71202;SDS011;58929;47.490;19.090;2023-04-06T04:32:27;28.33;;;13.27;;
71202;SDS011;58929;47.490;19.090;2023-04-06T04:35:06;22.15;;;13.30;;
71202;SDS011;58929;47.490;19.090;2023-04-06T04:37:40;27.65;;;14.35;;
71202;SDS011;58929;47.490;19.090;2023-04-06T04:40:09;27.50;;;13.85;;
71202;SDS011;58929;47.490;19.090;2023-04-06T04:42:48;27.65;;;13.57;;
71202;SDS011;58929;47.490;19.090;2023-04-06T04:45:35;31.02;;;14.02;;
71202;SDS011;58929;47.490;19.090;2023-04-06T04:48:13;23.17;;;13.15;;
71202;SDS011;58929;47.490;19.090;2023-04-06T04:51:02;24.83;;;13.40;;
71202;SDS011;58929;47.490;19.090;2023-04-06T04:53:43;24.88;;;13.45;;
71202;SDS011;58929;47.490;19.090;2023-04-06T04:56:24;32.78;;;14.25;;
71202;SDS011;58929;47.490;19.090;2023-04-06T04:59:01;27.07;;;12.77;;
71202;SDS011;58929;47.490;19.090;2023-04-06T05:01:33;33.63;;;13.85;;
71202;SDS011;58929;47.490;19.090;2023-04-06T05:04:22;30.52;;;13.75;;
71202;SDS011;58929;47.490;19.090;2023-04-06T05:07:01;26.83;;;12.25;;
71202;SDS011;58929;47.490;19.090;2023-04-06T05:09:31;30.33;;;13.80;;
71202;SDS011;58929;47.490;19.090;2023-04-06T05:12:00;57.08;;;24.10;;
71202;SDS011;58929;47.490;19.090;2023-04-06T05:14:31;48.63;;;17.65;;
71202;SDS011;58929;47.490;19.090;2023-04-06T05:17:02;39.05;;;16.95;;
71202;SDS011;58929;47.490;19.090;2023-04-06T05:19:30;32.22;;;15.27;;
71202;SDS011;58929;47.490;19.090;2023-04-06T05:22:01;38.42;;;15.43;;
71202;SDS011;58929;47.490;19.090;2023-04-06T05:24:34;36.35;;;14.38;;
71202;SDS011;58929;47.490;19.090;2023-04-06T05:27:06;30.95;;;15.18;;
71202;SDS011;58929;47.490;19.090;2023-04-06T05:29:34;29.17;;;14.13;;
71202;SDS011;58929;47.490;19.090;2023-04-06T05:32:03;26.73;;;12.38;;
71202;SDS011;58929;47.490;19.090;2023-04-06T05:34:33;26.02;;;12.60;;
71202;SDS011;58929;47.490;19.090;2023-04-06T05:37:03;27.33;;;12.88;;
71202;SDS011;58929;47.490;19.090;2023-04-06T05:39:31;54.22;;;24.08;;
71202;SDS011;58929;47.490;19.090;2023-04-06T05:42:03;27.10;;;13.80;;
71202;SDS011;58929;47.490;19.090;2023-04-06T05:44:43;18.33;;;11.18;;
71202;SDS011;58929;47.490;19.090;2023-04-06T05:47:14;20.58;;;11.40;;
71202;SDS011;58929;47.490;19.090;2023-04-06T05:49:45;21.83;;;11.50;;
71202;SDS011;58929;47.490;19.090;2023-04-06T05:52:20;26.83;;;12.05;;
71202;SDS011;58929;47.490;19.090;2023-04-06T05:54:48;24.73;;;12.70;;
71202;SDS011;58929;47.490;19.090;2023-04-06T05:57:18;29.52;;;14.90;;
71202;SDS011;58929;47.490;19.090;2023-04-06T05:59:47;25.42;;;12.35;;
71202;SDS011;58929;47.490;19.090;2023-04-06T06:02:16;22.75;;;11.73;;
71202;SDS011;58929;47.490;19.090;2023-04-06T06:04:47;20.95;;;10.43;;
71202;SDS011;58929;47.490;19.090;2023-04-06T06:07:17;26.65;;;11.20;;
71202;SDS011;58929;47.490;19.090;2023-04-06T06:09:56;20.77;;;11.10;;
71202;SDS011;58929;47.490;19.090;2023-04-06T06:12:30;18.13;;;10.48;;
71202;SDS011;58929;47.490;19.090;2023-04-06T06:15:00;26.45;;;12.38;;
71202;SDS011;58929;47.490;19.090;2023-04-06T06:17:30;27.30;;;14.85;;
71202;SDS011;58929;47.490;19.090;2023-04-06T06:19:59;31.10;;;15.27;;
71202;SDS011;58929;47.490;19.090;2023-04-06T06:22:27;27.17;;;14.35;;
71202;SDS011;58929;47.490;19.090;2023-04-06T06:24:56;28.90;;;15.55;;
71202;SDS011;58929;47.490;19.090;2023-04-06T06:27:24;26.90;;;14.68;;
71202;SDS011;58929;47.490;19.090;2023-04-06T06:29:54;19.73;;;11.88;;
71202;SDS011;58929;47.490;19.090;2023-04-06T06:32:23;26.30;;;15.43;;
71202;SDS011;58929;47.490;19.090;2023-04-06T06:34:53;24.65;;;13.80;;
71202;SDS011;58929;47.490;19.090;2023-04-06T06:37:21;23.02;;;12.13;;
71202;SDS011;58929;47.490;19.090;2023-04-06T06:39:49;28.70;;;14.40;;
71202;SDS011;58929;47.490;19.090;2023-04-06T06:42:19;23.27;;;12.32;;
71202;SDS011;58929;47.490;19.090;2023-04-06T06:45:09;20.40;;;12.32;;
71202;SDS011;58929;47.490;19.090;2023-04-06T06:47:38;24.67;;;13.30;;
71202;SDS011;58929;47.490;19.090;2023-04-06T06:50:10;27.20;;;12.30;;
71202;SDS011;58929;47.490;19.090;2023-04-06T06:52:39;41.83;;;20.02;;
71202;SDS011;58929;47.490;19.090;2023-04-06T06:55:08;26.00;;;13.20;;
71202;SDS011;58929;47.490;19.090;2023-04-06T06:57:37;28.15;;;12.48;;
71202;SDS011;58929;47.490;19.090;2023-04-06T07:00:09;19.25;;;11.05;;
71202;SDS011;58929;47.490;19.090;2023-04-06T07:02:40;20.05;;;11.25;;
71202;SDS011;58929;47.490;19.090;2023-04-06T07:05:08;21.05;;;11.23;;
71202;SDS011;58929;47.490;19.090;2023-04-06T07:07:53;17.48;;;11.23;;
71202;SDS011;58929;47.490;19.090;2023-04-06T07:10:22;18.08;;;10.27;;
71202;SDS011;58929;47.490;19.090;2023-04-06T07:12:50;21.35;;;9.88;;
71202;SDS011;58929;47.490;19.090;2023-04-06T07:15:19;20.88;;;9.98;;
71202;SDS011;58929;47.490;19.090;2023-04-06T07:17:48;18.60;;;10.30;;
71202;SDS011;58929;47.490;19.090;2023-04-06T07:20:17;19.95;;;10.15;;
71202;SDS011;58929;47.490;19.090;2023-04-06T07:22:45;15.52;;;9.73;;
71202;SDS011;58929;47.490;19.090;2023-04-06T07:25:14;17.75;;;9.40;;
71202;SDS011;58929;47.490;19.090;2023-04-06T07:27:42;20.38;;;10.50;;
71202;SDS011;58929;47.490;19.090;2023-04-06T07:30:11;17.73;;;10.88;;
71202;SDS011;58929;47.490;19.090;2023-04-06T07:32:43;18.00;;;10.10;;
71202;SDS011;58929;47.490;19.090;2023-04-06T07:35:12;20.25;;;11.75;;
71202;SDS011;58929;47.490;19.090;2023-04-06T07:37:40;20.67;;;11.05;;
71202;SDS011;58929;47.490;19.090;2023-04-06T07:40:09;17.52;;;10.27;;
71202;SDS011;58929;47.490;19.090;2023-04-06T07:42:40;19.08;;;10.55;;
71202;SDS011;58929;47.490;19.090;2023-04-06T07:45:09;24.50;;;12.35;;
71202;SDS011;58929;47.490;19.090;2023-04-06T07:47:37;26.58;;;12.85;;
71202;SDS011;58929;47.490;19.090;2023-04-06T07:50:08;18.33;;;11.07;;
71202;SDS011;58929;47.490;19.090;2023-04-06T07:52:36;20.95;;;11.77;;
71202;SDS011;58929;47.490;19.090;2023-04-06T07:55:05;16.85;;;11.52;;
71202;SDS011;58929;47.490;19.090;2023-04-06T07:57:33;18.35;;;10.55;;
71202;SDS011;58929;47.490;19.090;2023-04-06T08:00:01;18.92;;;10.55;;
71202;SDS011;58929;47.490;19.090;2023-04-06T08:02:37;18.20;;;10.25;;
71202;SDS011;58929;47.490;19.090;2023-04-06T08:05:06;22.02;;;9.88;;
71202;SDS011;58929;47.490;19.090;2023-04-06T08:07:35;18.13;;;9.85;;
71202;SDS011;58929;47.490;19.090;2023-04-06T08:10:03;20.77;;;10.20;;
71202;SDS011;58929;47.490;19.090;2023-04-06T08:12:32;19.40;;;11.13;;
71202;SDS011;58929;47.490;19.090;2023-04-06T08:15:00;18.00;;;10.82;;
71202;SDS011;58929;47.490;19.090;2023-04-06T08:17:29;17.60;;;9.80;;
71202;SDS011;58929;47.490;19.090;2023-04-06T08:19:57;19.10;;;10.88;;
71202;SDS011;58929;47.490;19.090;2023-04-06T08:22:25;17.55;;;10.48;;
71202;SDS011;58929;47.490;19.090;2023-04-06T08:24:55;16.92;;;10.05;;
71202;SDS011;58929;47.490;19.090;2023-04-06T08:27:23;20.08;;;10.80;;
71202;SDS011;58929;47.490;19.090;2023-04-06T08:29:51;21.77;;;10.63;;
71202;SDS011;58929;47.490;19.090;2023-04-06T08:32:19;15.57;;;9.70;;
71202;SDS011;58929;47.490;19.090;2023-04-06T08:34:47;22.73;;;10.57;;
71202;SDS011;58929;47.490;19.090;2023-04-06T08:37:15;18.48;;;11.13;;
71202;SDS011;58929;47.490;19.090;2023-04-06T08:39:43;21.35;;;11.18;;
71202;SDS011;58929;47.490;19.090;2023-04-06T08:42:16;19.08;;;10.23;;
71202;SDS011;58929;47.490;19.090;2023-04-06T08:44:44;20.15;;;11.27;;
71202;SDS011;58929;47.490;19.090;2023-04-06T08:47:13;22.73;;;10.13;;
71202;SDS011;58929;47.490;19.090;2023-04-06T08:49:41;19.52;;;10.10;;
71202;SDS011;58929;47.490;19.090;2023-04-06T08:52:10;19.65;;;10.48;;
71202;SDS011;58929;47.490;19.090;2023-04-06T08:54:38;17.08;;;9.88;;
71202;SDS011;58929;47.490;19.090;2023-04-06T08:57:06;19.75;;;10.20;;
71202;SDS011;58929;47.490;19.090;2023-04-06T08:59:36;15.38;;;9.52;;
71202;SDS011;58929;47.490;19.090;2023-04-06T09:02:04;17.60;;;10.63;;
71202;SDS011;58929;47.490;19.090;2023-04-06T09:04:33;18.60;;;10.02;;
71202;SDS011;58929;47.490;19.090;2023-04-06T09:07:02;18.23;;;9.98;;
71202;SDS011;58929;47.490;19.090;2023-04-06T09:09:30;20.73;;;10.02;;
71202;SDS011;58929;47.490;19.090;2023-04-06T09:11:58;16.55;;;9.77;;
71202;SDS011;58929;47.490;19.090;2023-04-06T09:14:37;16.35;;;9.60;;
71202;SDS011;58929;47.490;19.090;2023-04-06T09:17:06;21.65;;;11.13;;
71202;SDS011;58929;47.490;19.090;2023-04-06T09:19:33;16.27;;;9.88;;
71202;SDS011;58929;47.490;19.090;2023-04-06T09:24:40;18.27;;;9.23;;
71202;SDS011;58929;47.490;19.090;2023-04-06T09:27:09;19.27;;;9.50;;
71202;SDS011;58929;47.490;19.090;2023-04-06T09:29:38;12.45;;;8.35;;
71202;SDS011;58929;47.490;19.090;2023-04-06T09:32:07;18.02;;;10.18;;
71202;SDS011;58929;47.490;19.090;2023-04-06T09:34:37;19.88;;;9.93;;
71202;SDS011;58929;47.490;19.090;2023-04-06T09:37:12;18.77;;;8.80;;
71202;SDS011;58929;47.490;19.090;2023-04-06T09:39:40;16.50;;;9.52;;
71202;SDS011;58929;47.490;19.090;2023-04-06T09:42:09;18.52;;;8.75;;
71202;SDS011;58929;47.490;19.090;2023-04-06T09:44:38;15.45;;;9.38;;
71202;SDS011;58929;47.490;19.090;2023-04-06T09:47:06;19.50;;;9.70;;
71202;SDS011;58929;47.490;19.090;2023-04-06T09:49:36;22.63;;;14.27;;
71202;SDS011;58929;47.490;19.090;2023-04-06T09:52:05;15.77;;;9.20;;
71202;SDS011;58929;47.490;19.090;2023-04-06T09:54:34;33.90;;;15.75;;
71202;SDS011;58929;47.490;19.090;2023-04-06T09:57:04;15.60;;;8.18;;
71202;SDS011;58929;47.490;19.090;2023-04-06T09:59:40;15.95;;;9.55;;
71202;SDS011;58929;47.490;19.090;2023-04-06T10:02:13;15.32;;;8.40;;
71202;SDS011;58929;47.490;19.090;2023-04-06T10:04:43;14.95;;;8.38;;
71202;SDS011;58929;47.490;19.090;2023-04-06T10:07:16;20.27;;;9.32;;
71202;SDS011;58929;47.490;19.090;2023-04-06T10:09:44;16.08;;;10.02;;
71202;SDS011;58929;47.490;19.090;2023-04-06T10:12:13;22.00;;;9.43;;
71202;SDS011;58929;47.490;19.090;2023-04-06T10:14:42;16.20;;;9.23;;
71202;SDS011;58929;47.490;19.090;2023-04-06T10:17:11;14.77;;;8.63;;
71202;SDS011;58929;47.490;19.090;2023-04-06T10:19:41;18.23;;;9.88;;
71202;SDS011;58929;47.490;19.090;2023-04-06T10:22:10;24.58;;;10.82;;
71202;SDS011;58929;47.490;19.090;2023-04-06T10:24:40;18.50;;;10.70;;
71202;SDS011;58929;47.490;19.090;2023-04-06T10:27:08;14.27;;;8.85;;
71202;SDS011;58929;47.490;19.090;2023-04-06T10:29:43;17.55;;;9.73;;
71202;SDS011;58929;47.490;19.090;2023-04-06T10:32:11;16.35;;;9.40;;
71202;SDS011;58929;47.490;19.090;2023-04-06T10:34:39;17.90;;;10.43;;
71202;SDS011;58929;47.490;19.090;2023-04-06T10:37:12;15.15;;;8.82;;
71202;SDS011;58929;47.490;19.090;2023-04-06T10:39:46;20.27;;;8.32;;
71202;SDS011;58929;47.490;19.090;2023-04-06T10:42:15;18.95;;;8.73;;
71202;SDS011;58929;47.490;19.090;2023-04-06T10:44:44;12.50;;;8.57;;
71202;SDS011;58929;47.490;19.090;2023-04-06T10:47:16;14.48;;;8.20;;
71202;SDS011;58929;47.490;19.090;2023-04-06T10:49:47;13.05;;;8.48;;
71202;SDS011;58929;47.490;19.090;2023-04-06T10:52:15;15.32;;;9.18;;
71202;SDS011;58929;47.490;19.090;2023-04-06T10:54:43;18.10;;;9.25;;
71202;SDS011;58929;47.490;19.090;2023-04-06T10:57:15;13.75;;;8.05;;
71202;SDS011;58929;47.490;19.090;2023-04-06T10:59:44;12.32;;;8.60;;
71202;SDS011;58929;47.490;19.090;2023-04-06T11:02:19;15.77;;;7.75;;
71202;SDS011;58929;47.490;19.090;2023-04-06T11:04:53;18.92;;;8.60;;
71202;SDS011;58929;47.490;19.090;2023-04-06T11:07:25;16.50;;;7.97;;
71202;SDS011;58929;47.490;19.090;2023-04-06T11:09:53;14.38;;;8.85;;
71202;SDS011;58929;47.490;19.090;2023-04-06T11:12:39;14.23;;;7.28;;
71202;SDS011;58929;47.490;19.090;2023-04-06T11:15:10;19.25;;;8.30;;
71202;SDS011;58929;47.490;19.090;2023-04-06T11:17:39;13.82;;;7.45;;
71202;SDS011;58929;47.490;19.090;2023-04-06T11:20:09;15.32;;;8.45;;
71202;SDS011;58929;47.490;19.090;2023-04-06T11:22:47;13.70;;;8.48;;
71202;SDS011;58929;47.490;19.090;2023-04-06T11:27:44;11.95;;;7.60;;
71202;SDS011;58929;47.490;19.090;2023-04-06T11:30:14;13.10;;;7.80;;
71202;SDS011;58929;47.490;19.090;2023-04-06T11:32:43;15.65;;;8.60;;
71202;SDS011;58929;47.490;19.090;2023-04-06T11:35:11;11.05;;;7.35;;
71202;SDS011;58929;47.490;19.090;2023-04-06T11:37:40;14.02;;;7.53;;
71202;SDS011;58929;47.490;19.090;2023-04-06T11:40:10;15.52;;;8.57;;
71202;SDS011;58929;47.490;19.090;2023-04-06T11:42:38;13.13;;;7.28;;
71202;SDS011;58929;47.490;19.090;2023-04-06T11:45:07;18.52;;;8.45;;
71202;SDS011;58929;47.490;19.090;2023-04-06T11:47:36;14.80;;;8.35;;
71202;SDS011;58929;47.490;19.090;2023-04-06T11:50:05;14.45;;;7.93;;
71202;SDS011;58929;47.490;19.090;2023-04-06T11:52:33;11.95;;;7.72;;
71202;SDS011;58929;47.490;19.090;2023-04-06T11:55:10;15.50;;;7.63;;
71202;SDS011;58929;47.490;19.090;2023-04-06T11:57:42;18.88;;;11.18;;
71202;SDS011;58929;47.490;19.090;2023-04-06T12:00:10;12.38;;;7.72;;
71202;SDS011;58929;47.490;19.090;2023-04-06T12:02:45;13.27;;;8.70;;
71202;SDS011;58929;47.490;19.090;2023-04-06T12:05:13;15.15;;;8.70;;
71202;SDS011;58929;47.490;19.090;2023-04-06T12:07:42;15.25;;;7.85;;
71202;SDS011;58929;47.490;19.090;2023-04-06T12:10:10;24.42;;;13.88;;
71202;SDS011;58929;47.490;19.090;2023-04-06T12:12:38;37.13;;;20.95;;
71202;SDS011;58929;47.490;19.090;2023-04-06T12:15:06;11.38;;;8.10;;
71202;SDS011;58929;47.490;19.090;2023-04-06T12:17:35;12.57;;;8.18;;
71202;SDS011;58929;47.490;19.090;2023-04-06T12:20:05;12.43;;;7.45;;
71202;SDS011;58929;47.490;19.090;2023-04-06T12:22:51;14.57;;;8.70;;
71202;SDS011;58929;47.490;19.090;2023-04-06T12:25:19;16.98;;;8.30;;
71202;SDS011;58929;47.490;19.090;2023-04-06T12:27:47;17.65;;;8.27;;
71202;SDS011;58929;47.490;19.090;2023-04-06T12:30:15;12.10;;;7.15;;
71202;SDS011;58929;47.490;19.090;2023-04-06T12:32:43;15.75;;;7.28;;
71202;SDS011;58929;47.490;19.090;2023-04-06T12:35:16;14.57;;;7.30;;
71202;SDS011;58929;47.490;19.090;2023-04-06T12:37:44;15.70;;;9.90;;
71202;SDS011;58929;47.490;19.090;2023-04-06T12:40:13;11.88;;;7.60;;
71202;SDS011;58929;47.490;19.090;2023-04-06T12:42:41;11.30;;;7.10;;
71202;SDS011;58929;47.490;19.090;2023-04-06T12:45:09;16.20;;;7.68;;
71202;SDS011;58929;47.490;19.090;2023-04-06T12:47:38;14.10;;;8.60;;
71202;SDS011;58929;47.490;19.090;2023-04-06T12:50:06;13.60;;;7.40;;
71202;SDS011;58929;47.490;19.090;2023-04-06T12:52:35;14.70;;;8.15;;
71202;SDS011;58929;47.490;19.090;2023-04-06T12:55:04;12.13;;;7.55;;
71202;SDS011;58929;47.490;19.090;2023-04-06T12:57:32;13.63;;;7.68;;
71202;SDS011;58929;47.490;19.090;2023-04-06T13:00:01;14.18;;;7.35;;
71202;SDS011;58929;47.490;19.090;2023-04-06T13:02:32;13.13;;;7.82;;
71202;SDS011;58929;47.490;19.090;2023-04-06T13:05:00;14.35;;;7.70;;
71202;SDS011;58929;47.490;19.090;2023-04-06T13:07:28;16.45;;;8.10;;
71202;SDS011;58929;47.490;19.090;2023-04-06T13:09:59;13.63;;;7.30;;
71202;SDS011;58929;47.490;19.090;2023-04-06T13:12:28;14.40;;;8.70;;
71202;SDS011;58929;47.490;19.090;2023-04-06T13:14:56;10.68;;;7.57;;
71202;SDS011;58929;47.490;19.090;2023-04-06T13:17:26;12.32;;;7.50;;
71202;SDS011;58929;47.490;19.090;2023-04-06T13:19:54;13.43;;;7.82;;
71202;SDS011;58929;47.490;19.090;2023-04-06T13:22:22;12.43;;;8.05;;
71202;SDS011;58929;47.490;19.090;2023-04-06T13:24:50;13.43;;;8.02;;
71202;SDS011;58929;47.490;19.090;2023-04-06T13:27:19;16.65;;;8.43;;
71202;SDS011;58929;47.490;19.090;2023-04-06T13:29:47;13.48;;;7.50;;
71202;SDS011;58929;47.490;19.090;2023-04-06T13:32:16;17.45;;;7.85;;
71202;SDS011;58929;47.490;19.090;2023-04-06T13:34:44;15.73;;;8.65;;
71202;SDS011;58929;47.490;19.090;2023-04-06T13:37:12;15.10;;;8.25;;
71202;SDS011;58929;47.490;19.090;2023-04-06T13:39:41;13.30;;;7.65;;
71202;SDS011;58929;47.490;19.090;2023-04-06T13:42:10;16.35;;;8.48;;
71202;SDS011;58929;47.490;19.090;2023-04-06T13:44:40;11.45;;;6.97;;
71202;SDS011;58929;47.490;19.090;2023-04-06T13:47:08;14.23;;;6.57;;
71202;SDS011;58929;47.490;19.090;2023-04-06T13:49:36;16.92;;;10.65;;
71202;SDS011;58929;47.490;19.090;2023-04-06T13:52:04;11.90;;;7.05;;
71202;SDS011;58929;47.490;19.090;2023-04-06T13:54:32;12.85;;;6.68;;
71202;SDS011;58929;47.490;19.090;2023-04-06T13:57:01;12.50;;;7.20;;
71202;SDS011;58929;47.490;19.090;2023-04-06T13:59:31;14.60;;;6.32;;
71202;SDS011;58929;47.490;19.090;2023-04-06T14:02:01;10.93;;;6.28;;
71202;SDS011;58929;47.490;19.090;2023-04-06T14:04:29;17.60;;;7.38;;
71202;SDS011;58929;47.490;19.090;2023-04-06T14:06:57;10.82;;;6.80;;
71202;SDS011;58929;47.490;19.090;2023-04-06T14:09:25;15.82;;;7.18;;
71202;SDS011;58929;47.490;19.090;2023-04-06T14:11:54;15.10;;;7.70;;
71202;SDS011;58929;47.490;19.090;2023-04-06T14:14:22;10.85;;;6.30;;
71202;SDS011;58929;47.490;19.090;2023-04-06T14:16:50;18.77;;;7.68;;
71202;SDS011;58929;47.490;19.090;2023-04-06T14:19:20;11.93;;;7.10;;
71202;SDS011;58929;47.490;19.090;2023-04-06T14:21:48;13.52;;;7.05;;
71202;SDS011;58929;47.490;19.090;2023-04-06T14:24:17;14.02;;;7.47;;
71202;SDS011;58929;47.490;19.090;2023-04-06T14:26:45;10.52;;;6.30;;
71202;SDS011;58929;47.490;19.090;2023-04-06T14:29:14;17.88;;;6.95;;
71202;SDS011;58929;47.490;19.090;2023-04-06T14:31:42;13.90;;;6.88;;
71202;SDS011;58929;47.490;19.090;2023-04-06T14:34:10;12.48;;;7.28;;
71202;SDS011;58929;47.490;19.090;2023-04-06T14:36:40;14.57;;;7.25;;
71202;SDS011;58929;47.490;19.090;2023-04-06T14:39:08;11.13;;;6.47;;
71202;SDS011;58929;47.490;19.090;2023-04-06T14:41:36;9.35;;;6.15;;
71202;SDS011;58929;47.490;19.090;2023-04-06T14:44:07;13.77;;;6.53;;
71202;SDS011;58929;47.490;19.090;2023-04-06T14:46:39;10.70;;;6.93;;